Time;durP1;ratioP1;P1;durP2;ratioP2;P2;SDS_P1;SDS_P2;PMS_P1;PMS_P2;Temp;Humidity;BMP_temperature;BMP_pressure;BME280_temperature;BME280_humidity;BME280_pressure;Samples;Min_cycle;Max_cycle;Signal;HPM_P1;HPM_P2
2024/01/24 00:02:03;;;;;;;11.50;5.55;;;;;;;12.23;90.13;99313.72;4955814;29;20062;-76
2024/01/24 00:04:30;;;;;;;11.88;5.97;;;;;;;12.25;90.14;99322.38;4955495;29;20055;-75
2024/01/24 00:06:56;;;;;;;12.38;4.97;;;;;;;12.31;90.24;99285.94;4955757;29;20062;-76
2024/01/24 00:09:23;;;;;;;11.63;5.35;;;;;;;12.33;90.02;99282.25;4955826;29;20055;-76
2024/01/24 00:11:49;;;;;;;14.13;5.38;;;;;;;12.37;89.79;99267.88;4955633;29;20504;-75
2024/01/24 00:14:16;;;;;;;15.18;5.65;;;;;;;12.37;89.82;99281.06;4955451;29;20047;-76
2024/01/24 00:16:43;;;;;;;16.20;5.78;;;;;;;12.43;89.98;99282.44;4955561;29;20047;-76
2024/01/24 00:19:09;;;;;;;14.45;5.30;;;;;;;12.46;90.01;99284.00;4938622;29;20094;-76
2024/01/24 00:21:37;;;;;;;16.40;5.63;;;;;;;12.48;90.06;99309.31;4955333;29;20051;-76
2024/01/24 00:24:03;;;;;;;14.00;5.20;;;;;;;12.52;90.11;99309.94;4955166;29;20181;-77
2024/01/24 00:26:30;;;;;;;15.77;5.60;;;;;;;12.54;90.41;99286.06;4955322;29;20074;-76
2024/01/24 00:28:57;;;;;;;14.45;5.38;;;;;;;12.55;90.64;99270.13;4955402;29;20051;-75
2024/01/24 00:31:23;;;;;;;16.17;5.78;;;;;;;12.62;90.46;99262.59;4955255;29;20083;-76
2024/01/24 00:33:52;;;;;;;13.02;5.05;;;;;;;12.64;90.30;99266.81;4955044;29;20063;-76
2024/01/24 00:36:19;;;;;;;18.17;5.35;;;;;;;12.68;90.20;99274.50;4955114;29;20066;-77
2024/01/24 00:38:46;;;;;;;15.43;5.30;;;;;;;12.71;90.03;99235.50;4954919;29;20527;-77
2024/01/24 00:41:12;;;;;;;17.20;5.22;;;;;;;12.74;89.88;99245.00;4955316;29;20133;-76
2024/01/24 00:43:39;;;;;;;18.92;5.97;;;;;;;12.75;90.14;99267.81;4954175;28;20059;-76
2024/01/24 00:46:05;;;;;;;21.63;5.85;;;;;;;12.81;90.11;99262.06;4955081;29;20047;-77
2024/01/24 00:48:32;;;;;;;18.05;5.57;;;;;;;12.85;89.81;99260.88;4955071;29;20118;-76
2024/01/24 00:50:58;;;;;;;13.82;5.35;;;;;;;12.86;89.94;99249.34;4954939;29;20436;-75
2024/01/24 00:53:26;;;;;;;17.55;5.85;;;;;;;12.86;90.11;99233.50;4954620;29;20058;-76
2024/01/24 00:55:53;;;;;;;19.40;6.07;;;;;;;12.91;89.90;99233.19;4954891;29;20047;-75
2024/01/24 00:58:19;;;;;;;13.02;4.53;;;;;;;12.96;89.86;99233.66;4954708;29;20055;-76
2024/01/24 01:00:46;;;;;;;15.60;5.10;;;;;;;12.99;89.74;99237.88;4954844;29;20102;-77
2024/01/24 01:03:12;;;;;;;14.32;4.47;;;;;;;13.03;89.78;99228.75;4954667;29;20090;-76
2024/01/24 01:05:39;;;;;;;14.10;4.60;;;;;;;13.08;89.52;99239.81;4954439;29;20109;-76
2024/01/24 01:08:06;;;;;;;16.17;4.95;;;;;;;13.09;89.50;99232.75;4954855;29;20079;-76
2024/01/24 01:10:33;;;;;;;12.65;4.60;;;;;;;13.14;89.17;99251.72;4954556;29;20106;-75
2024/01/24 01:13:00;;;;;;;15.18;5.00;;;;;;;13.16;88.88;99236.59;4954320;29;20058;-76
2024/01/24 01:15:26;;;;;;;19.02;5.22;;;;;;;13.19;88.69;99256.66;4954344;29;20059;-76
2024/01/24 01:17:53;;;;;;;10.52;4.05;;;;;;;13.19;88.52;99241.63;4954488;29;20403;-76
2024/01/24 01:20:20;;;;;;;15.60;4.40;;;;;;;13.21;88.64;99252.94;4954279;29;20047;-77
2024/01/24 01:22:47;;;;;;;13.68;4.32;;;;;;;13.21;88.56;99260.88;4954242;29;20082;-76
2024/01/24 01:25:13;;;;;;;14.35;4.50;;;;;;;13.22;88.66;99251.13;4954385;29;20150;-77
2024/01/24 01:27:40;;;;;;;13.63;4.22;;;;;;;13.23;88.67;99269.50;4954414;29;20043;-74
2024/01/24 01:30:07;;;;;;;11.65;3.95;;;;;;;13.24;88.72;99267.72;4954300;29;20047;-76
2024/01/24 01:32:34;;;;;;;16.88;3.97;;;;;;;13.24;88.93;99265.09;4954055;29;20448;-76
2024/01/24 01:35:00;;;;;;;11.85;4.28;;;;;;;13.26;88.72;99252.56;4953961;29;20055;-74
2024/01/24 01:37:27;;;;;;;7.88;3.28;;;;;;;13.28;88.75;99248.03;4954306;29;20082;-75
2024/01/24 01:39:53;;;;;;;17.05;3.83;;;;;;;13.31;88.52;99262.81;4954193;29;20059;-75
2024/01/24 01:42:20;;;;;;;12.73;3.35;;;;;;;13.31;88.28;99250.44;4953844;29;20134;-75
2024/01/24 01:44:47;;;;;;;11.90;3.45;;;;;;;13.29;88.62;99252.34;4954019;29;20050;-74
2024/01/24 01:47:15;;;;;;;8.55;3.53;;;;;;;13.31;88.54;99246.97;4954042;29;20119;-77
2024/01/24 01:49:43;;;;;;;11.80;3.80;;;;;;;13.34;88.67;99228.22;4953777;29;20051;-75
2024/01/24 01:52:10;;;;;;;9.48;3.05;;;;;;;13.32;88.68;99230.97;4953904;29;20094;-76
2024/01/24 01:54:38;;;;;;;5.72;2.65;;;;;;;13.33;88.53;99226.50;4952748;28;20044;-75
2024/01/24 01:57:08;;;;;;;5.95;2.65;;;;;;;13.34;88.68;99230.88;4952448;29;20130;-75
2024/01/24 01:59:36;;;;;;;8.85;2.80;;;;;;;13.32;88.78;99228.34;4953715;29;20062;-74
2024/01/24 02:02:03;;;;;;;7.93;2.85;;;;;;;13.33;88.79;99216.78;4953408;29;20058;-75
2024/01/24 02:04:30;;;;;;;6.80;3.13;;;;;;;13.33;89.15;99221.22;4953726;29;20095;-75
2024/01/24 02:06:57;;;;;;;5.50;2.80;;;;;;;13.34;89.32;99229.03;4936695;29;20055;-74
2024/01/24 02:09:24;;;;;;;7.43;2.70;;;;;;;13.36;89.43;99206.00;4953696;29;20134;-75
2024/01/24 02:11:51;;;;;;;7.18;2.58;;;;;;;13.32;89.51;99238.06;4953678;29;20147;-75
2024/01/24 02:14:18;;;;;;;8.73;2.50;;;;;;;13.36;90.06;99199.84;4953073;29;20047;-75
2024/01/24 02:16:44;;;;;;;8.10;2.17;;;;;;;13.37;89.51;99212.97;4936251;29;20062;-76
2024/01/24 02:19:11;;;;;;;5.80;2.22;;;;;;;13.40;89.64;99209.22;4953549;29;20114;-75
2024/01/24 02:21:38;;;;;;;6.15;2.50;;;;;;;13.39;89.99;99211.03;4953198;29;20055;-75
2024/01/24 02:24:09;;;;;;;6.28;2.13;;;;;;;13.39;89.71;99195.16;4952907;29;20066;-75
2024/01/24 02:26:35;;;;;;;6.40;2.13;;;;;;;13.45;89.58;99208.88;4953010;29;20491;-77
2024/01/24 02:29:02;;;;;;;5.10;2.08;;;;;;;13.46;89.58;99176.19;4953061;29;20059;-76
2024/01/24 02:31:28;;;;;;;5.65;2.20;;;;;;;13.46;89.64;99189.41;4951747;29;20130;-75
2024/01/24 02:33:55;;;;;;;6.15;1.73;;;;;;;13.48;89.89;99190.16;4952928;29;20122;-76
2024/01/24 02:36:22;;;;;;;6.40;1.80;;;;;;;13.47;89.73;99178.72;4953107;29;20043;-74
2024/01/24 02:38:48;;;;;;;3.33;1.50;;;;;;;13.51;89.51;99189.91;4967919;28;20099;-74
2024/01/24 02:41:17;;;;;;;3.13;1.60;;;;;;;13.52;89.53;99186.31;4952855;29;20108;-75
2024/01/24 02:43:43;;;;;;;5.00;1.50;;;;;;;13.52;89.51;99176.56;4952421;29;20051;-74
2024/01/24 02:46:10;;;;;;;4.25;1.33;;;;;;;13.53;89.42;99175.59;4935793;29;20098;-75
2024/01/24 02:48:36;;;;;;;3.13;1.48;;;;;;;13.53;89.35;99180.91;4952832;29;20180;-75
2024/01/24 02:51:03;;;;;;;3.45;1.20;;;;;;;13.52;89.71;99141.34;4953009;29;20117;-75
2024/01/24 02:53:30;;;;;;;3.42;1.10;;;;;;;13.53;89.67;99145.69;4952411;29;20411;-74
2024/01/24 02:55:57;;;;;;;1.80;1.20;;;;;;;13.53;89.56;99149.16;4952883;29;20146;-73
2024/01/24 02:58:23;;;;;;;2.15;1.20;;;;;;;13.55;89.36;99164.91;4952706;29;20051;-74
2024/01/24 03:00:50;;;;;;;1.98;0.85;;;;;;;13.54;89.50;99134.16;4952839;29;20047;-73
2024/01/24 03:03:17;;;;;;;1.10;0.93;;;;;;;13.53;89.43;99146.53;4952438;29;20051;-75
2024/01/24 03:05:43;;;;;;;1.98;1.15;;;;;;;13.52;89.54;99120.19;4952348;28;20055;-75
2024/01/24 03:08:11;;;;;;;2.15;0.95;;;;;;;13.52;89.60;99128.13;4952722;29;20059;-75
2024/01/24 03:10:37;;;;;;;1.63;1.05;;;;;;;13.53;89.35;99132.47;4952486;29;20496;-74
2024/01/24 03:13:04;;;;;;;3.08;1.20;;;;;;;13.50;89.44;99146.75;4952161;29;20062;-74
2024/01/24 03:15:30;;;;;;;3.05;0.93;;;;;;;13.51;89.58;99129.97;4952329;29;20083;-74
2024/01/24 03:17:57;;;;;;;1.95;0.80;;;;;;;13.52;89.53;99154.56;4952748;29;20116;-74
2024/01/24 03:20:24;;;;;;;1.60;1.13;;;;;;;13.52;89.55;99138.72;4952544;29;20385;-75
2024/01/24 03:22:50;;;;;;;1.42;0.90;;;;;;;13.49;89.48;99123.09;4952176;29;20062;-75
2024/01/24 03:25:18;;;;;;;1.60;1.00;;;;;;;13.49;89.78;99144.25;4952234;29;20047;-74
2024/01/24 03:27:45;;;;;;;3.53;1.15;;;;;;;13.51;89.62;99147.59;4952323;29;20173;-74
2024/01/24 03:30:13;;;;;;;0.90;0.70;;;;;;;13.52;89.58;99170.44;4952343;29;20488;-75
2024/01/24 03:32:39;;;;;;;0.93;0.70;;;;;;;13.51;89.63;99121.16;4952013;29;20055;-75
2024/01/24 03:35:07;;;;;;;0.93;0.70;;;;;;;13.50;89.65;99120.31;4952388;29;20055;-76
2024/01/24 03:37:34;;;;;;;1.08;0.68;;;;;;;13.48;89.49;99139.91;4935234;29;20480;-75
2024/01/24 03:40:00;;;;;;;1.63;0.75;;;;;;;13.52;89.41;99144.84;4952301;29;20063;-76
2024/01/24 03:42:27;;;;;;;2.53;0.95;;;;;;;13.52;89.38;99115.75;4952088;29;20052;-75
2024/01/24 03:44:53;;;;;;;1.30;0.57;;;;;;;13.52;89.26;99133.41;4952282;29;20486;-74
2024/01/24 03:47:20;;;;;;;1.27;0.68;;;;;;;13.54;89.35;99107.72;4952232;29;20063;-76
2024/01/24 03:49:47;;;;;;;1.42;0.52;;;;;;;13.54;89.49;99136.81;4952119;29;20051;-75
2024/01/24 03:52:13;;;;;;;1.02;0.40;;;;;;;13.54;89.51;99136.81;4952136;29;20051;-76
2024/01/24 03:54:40;;;;;;;0.40;0.40;;;;;;;13.54;89.13;99150.03;4966468;28;20066;-75
2024/01/24 03:57:07;;;;;;;0.40;0.40;;;;;;;13.53;89.21;99143.88;4952277;29;20415;-75
2024/01/24 03:59:37;;;;;;;0.45;0.40;;;;;;;13.52;89.21;99149.28;4952122;29;20091;-74
2024/01/24 04:02:03;;;;;;;1.25;0.30;;;;;;;13.54;89.19;99153.50;4952042;29;20114;-75
2024/01/24 04:04:30;;;;;;;0.40;0.25;;;;;;;13.55;89.04;99149.06;4951736;29;20051;-75
2024/01/24 04:06:57;;;;;;;0.30;0.30;;;;;;;13.57;89.07;99180.66;4952010;29;20392;-75
2024/01/24 04:09:23;;;;;;;2.30;0.30;;;;;;;13.55;88.95;99146.41;4951965;29;20071;-75
2024/01/24 04:11:50;;;;;;;0.32;0.32;;;;;;;13.55;88.77;99178.13;4952144;29;20051;-74
2024/01/24 04:14:16;;;;;;;0.85;0.47;;;;;;;13.51;88.04;99188.13;4951803;29;20134;-76
2024/01/24 04:16:43;;;;;;;0.28;0.28;;;;;;;13.52;88.35;99203.03;4952164;29;20055;-75
2024/01/24 04:19:10;;;;;;;1.17;0.52;;;;;;;13.51;88.04;99221.66;4954670;29;20130;-76
2024/01/24 04:21:42;;;;;;;0.43;0.40;;;;;;;13.48;87.33;99212.16;4955279;29;20059;-77
2024/01/24 04:24:08;;;;;;;3.83;0.63;;;;;;;13.48;87.45;99200.72;4955116;29;20117;-75
2024/01/24 04:26:35;;;;;;;1.15;0.55;;;;;;;13.48;87.27;99227.16;4955494;29;20094;-74
2024/01/24 04:29:02;;;;;;;1.65;0.60;;;;;;;13.45;87.10;99196.50;4955534;29;20059;-75
2024/01/24 04:31:28;;;;;;;3.28;0.60;;;;;;;13.42;86.96;99216.06;4955053;29;20488;-75
2024/01/24 04:33:55;;;;;;;3.58;0.75;;;;;;;13.42;87.30;99194.94;4955061;29;20090;-75
2024/01/24 04:36:21;;;;;;;1.50;0.60;;;;;;;13.41;86.89;99201.19;4955129;29;20457;-75
2024/01/24 04:38:48;;;;;;;1.48;0.70;;;;;;;13.40;87.10;99225.09;4955342;29;20070;-76
2024/01/24 04:41:14;;;;;;;4.07;1.00;;;;;;;13.39;86.60;99195.16;4955237;29;20098;-75
2024/01/24 04:43:41;;;;;;;5.88;1.27;;;;;;;13.38;86.62;99219.91;4954764;29;20047;-74
2024/01/24 04:46:15;;;;;;;4.03;0.90;;;;;;;13.34;85.45;99221.13;4954982;29;20492;-76
2024/01/24 04:48:43;;;;;;;2.05;1.15;;;;;;;13.36;86.43;99250.94;4954878;29;20066;-78
2024/01/24 04:51:11;;;;;;;3.55;0.90;;;;;;;13.34;86.42;99229.03;4954907;29;20566;-76
2024/01/24 04:53:38;;;;;;;10.07;1.65;;;;;;;13.32;85.36;99251.28;4954628;29;20058;-75
2024/01/24 04:56:06;;;;;;;6.65;1.45;;;;;;;13.30;85.13;99238.16;4954910;29;20149;-75
2024/01/24 04:58:32;;;;;;;4.68;1.08;;;;;;;13.30;85.27;99238.16;4954747;29;20102;-75
2024/01/24 05:01:00;;;;;;;5.45;1.42;;;;;;;13.30;85.44;99238.16;4954742;29;20464;-76
2024/01/24 05:03:27;;;;;;;4.53;1.38;;;;;;;13.28;85.06;99238.28;4954362;29;20065;-74
2024/01/24 05:05:54;;;;;;;4.93;1.58;;;;;;;13.25;84.75;99254.41;4954847;29;20047;-76
2024/01/24 05:08:32;;;;;;;6.68;1.73;;;;;;;13.26;85.07;99257.88;4954836;29;20134;-74
2024/01/24 05:10:59;;;;;;;8.13;1.52;;;;;;;13.26;84.89;99249.94;4954657;29;20059;-77
2024/01/24 05:13:26;;;;;;;7.05;1.77;;;;;;;13.26;84.99;99255.22;4954379;29;20059;-75
2024/01/24 05:15:52;;;;;;;9.80;2.10;;;;;;;13.25;84.19;99275.53;4954319;29;20051;-74
2024/01/24 05:18:19;;;;;;;11.05;2.25;;;;;;;13.22;83.51;99265.19;4954428;29;20047;-75
2024/01/24 05:20:47;;;;;;;11.48;1.77;;;;;;;13.20;83.61;99253.88;4954561;29;20115;-74
2024/01/24 05:23:14;;;;;;;11.50;2.33;;;;;;;13.15;82.23;99285.97;4937132;29;20579;-76
2024/01/24 05:25:42;;;;;;;10.30;2.25;;;;;;;13.09;81.65;99291.69;4954144;29;20502;-75
2024/01/24 05:28:10;;;;;;;15.55;2.78;;;;;;;13.07;81.59;99269.00;4954288;29;20415;-75
2024/01/24 05:30:37;;;;;;;16.48;2.83;;;;;;;13.05;81.69;99271.78;4954218;28;20118;-76
2024/01/24 05:33:05;;;;;;;17.20;2.63;;;;;;;13.05;82.13;99274.41;4954013;29;20138;-76
2024/01/24 05:35:32;;;;;;;11.57;2.70;;;;;;;13.04;81.78;99309.69;4954212;29;20051;-76
2024/01/24 05:38:00;;;;;;;15.05;2.72;;;;;;;13.04;82.22;99314.97;4954087;29;20073;-76
2024/01/24 05:40:26;;;;;;;13.35;3.22;;;;;;;13.03;82.13;99308.88;4954055;29;20047;-75
2024/01/24 05:42:53;;;;;;;15.90;3.33;;;;;;;13.04;82.20;99296.50;4953517;29;20051;-77
2024/01/24 05:45:20;;;;;;;13.98;2.65;;;;;;;13.02;82.11;99322.19;4953895;29;20054;-75
2024/01/24 05:47:47;;;;;;;15.75;3.90;;;;;;;13.00;80.86;99329.38;4954070;29;20063;-76
2024/01/24 05:50:14;;;;;;;13.48;2.95;;;;;;;12.98;81.68;99336.59;4954058;29;20555;-76
2024/01/24 05:52:41;;;;;;;20.10;3.65;;;;;;;12.94;81.29;99354.47;4953616;29;20196;-75
2024/01/24 05:55:11;;;;;;;16.92;3.10;;;;;;;12.90;81.22;99345.91;4953675;29;20043;-76
2024/01/24 05:57:42;;;;;;;20.25;4.65;;;;;;;12.85;79.92;99342.78;4953672;29;20507;-76
2024/01/24 06:00:13;;;;;;;19.50;3.33;;;;;;;12.82;80.34;99345.63;4953723;29;20415;-75
2024/01/24 06:02:43;;;;;;;20.05;4.72;;;;;;;12.81;80.49;99346.59;4936474;29;20051;-76
2024/01/24 06:05:09;;;;;;;21.10;4.53;;;;;;;12.80;80.92;99359.91;4953525;29;20051;-76
2024/01/24 06:07:36;;;;;;;24.52;4.85;;;;;;;12.79;79.89;99368.78;4953425;29;20118;-76
2024/01/24 06:10:04;;;;;;;29.05;4.57;;;;;;;12.76;80.17;99360.13;4953423;29;20416;-76
2024/01/24 06:12:30;;;;;;;27.52;5.10;;;;;;;12.76;80.38;99386.53;4953343;29;20066;-76
2024/01/24 06:14:57;;;;;;;28.73;5.30;;;;;;;12.76;79.96;99383.06;4953570;29;20047;-77
2024/01/24 06:17:23;;;;;;;26.83;5.35;;;;;;;12.70;78.03;99362.38;4953420;29;20051;-76
2024/01/24 06:19:51;;;;;;;29.23;5.05;;;;;;;12.71;78.52;99406.31;4953234;29;20504;-76
2024/01/24 06:22:18;;;;;;;33.42;5.63;;;;;;;12.69;78.58;99353.63;4953257;29;20061;-77
2024/01/24 06:24:44;;;;;;;32.70;5.70;;;;;;;12.70;78.86;99381.69;4952960;29;20570;-76
2024/01/24 06:27:12;;;;;;;26.90;5.10;;;;;;;12.70;79.18;99349.16;4953469;29;20047;-76
2024/01/24 06:29:38;;;;;;;29.40;5.32;;;;;;;12.68;78.61;99380.13;4953327;29;20556;-75
2024/01/24 06:32:25;;;;;;;27.88;5.18;;;;;;;12.68;78.62;99388.91;4953391;28;20047;-76
2024/01/24 06:34:52;;;;;;;26.27;5.45;;;;;;;12.66;78.41;99401.34;4953178;29;20051;-75
2024/01/24 06:37:18;;;;;;;22.65;4.75;;;;;;;12.63;78.70;99407.72;4952664;29;20056;-73
2024/01/24 06:39:45;;;;;;;30.33;5.28;;;;;;;12.62;78.61;99387.53;4953265;29;20508;-74
2024/01/24 06:42:11;;;;;;;32.45;6.65;;;;;;;12.58;78.02;99404.56;4952470;28;20058;-73
2024/01/24 06:44:38;;;;;;;32.10;6.25;;;;;;;12.56;77.32;99427.56;4952791;29;20047;-71
2024/01/24 06:47:05;;;;;;;27.85;5.60;;;;;;;12.55;76.79;99439.09;4953147;29;20409;-74
2024/01/24 06:49:31;;;;;;;27.95;5.05;;;;;;;12.54;77.22;99449.75;4953070;29;20061;-74
2024/01/24 06:51:58;;;;;;;28.10;5.80;;;;;;;12.53;77.81;99408.47;4953098;29;20051;-72
2024/01/24 06:54:25;;;;;;;32.88;5.18;;;;;;;12.51;77.52;99448.19;4952701;29;20063;-78
2024/01/24 06:56:52;;;;;;;38.13;6.53;;;;;;;12.52;77.86;99452.50;4953024;29;20047;-72
2024/01/24 06:59:19;;;;;;;26.17;6.05;;;;;;;12.51;77.62;99451.66;4952575;29;20055;-73
2024/01/24 07:01:45;;;;;;;33.85;7.15;;;;;;;12.50;77.06;99454.41;4952855;29;20130;-73
2024/01/24 07:04:12;;;;;;;32.67;6.68;;;;;;;12.49;77.38;99447.44;4952474;29;20138;-74
2024/01/24 07:06:39;;;;;;;29.33;6.22;;;;;;;12.47;76.96;99462.53;4952865;29;20070;-71
2024/01/24 07:09:06;;;;;;;23.85;4.95;;;;;;;12.42;74.56;99485.78;4952788;29;20121;-75
2024/01/24 07:11:33;;;;;;;33.50;6.72;;;;;;;12.42;76.33;99475.22;4952598;29;20055;-73
2024/01/24 07:13:59;;;;;;;27.92;5.90;;;;;;;12.38;75.26;99493.06;4952442;29;20464;-72
2024/01/24 07:16:26;;;;;;;36.80;6.95;;;;;;;12.41;76.61;99478.81;4952591;29;20047;-73
2024/01/24 07:18:52;;;;;;;32.80;6.07;;;;;;;12.40;76.34;99492.97;4935544;29;20500;-74
2024/01/24 07:21:19;;;;;;;32.55;6.13;;;;;;;12.37;76.31;99491.38;4952775;29;20079;-72
2024/01/24 07:23:46;;;;;;;28.55;5.40;;;;;;;12.37;76.36;99507.19;4952324;29;20154;-72
2024/01/24 07:26:12;;;;;;;29.45;5.20;;;;;;;12.35;75.63;99511.75;4952327;29;20530;-75
2024/01/24 07:28:39;;;;;;;35.50;6.22;;;;;;;12.34;76.46;99497.69;4952411;29;20088;-71
2024/01/24 07:31:06;;;;;;;24.15;4.60;;;;;;;12.33;76.69;99500.44;4934908;29;20106;-72
2024/01/24 07:33:33;;;;;;;30.45;6.38;;;;;;;12.33;76.84;99511.00;4951574;29;20055;-73
2024/01/24 07:35:59;;;;;;;25.25;5.05;;;;;;;12.31;76.40;99512.91;4935270;29;20094;-72
2024/01/24 07:38:26;;;;;;;37.72;6.88;;;;;;;12.29;75.97;99539.41;4952532;29;20047;-71
2024/01/24 07:40:53;;;;;;;31.15;6.18;;;;;;;12.29;76.42;99536.75;4952378;29;20463;-76
2024/01/24 07:43:20;;;;;;;32.33;6.38;;;;;;;12.28;76.11;99545.63;4952041;29;20101;-72
2024/01/24 07:45:46;;;;;;;30.63;5.40;;;;;;;12.28;76.14;99534.22;4952198;29;20059;-73
2024/01/24 07:48:14;;;;;;;29.80;6.45;;;;;;;12.27;76.81;99517.56;4952463;29;20159;-75
2024/01/24 07:50:42;;;;;;;28.30;5.82;;;;;;;12.27;76.59;99514.06;4952386;29;20143;-74
2024/01/24 07:53:09;;;;;;;25.67;6.00;;;;;;;12.24;76.31;99507.22;4953424;28;20059;-73
2024/01/24 07:55:36;;;;;;;33.30;5.75;;;;;;;12.24;76.52;99518.63;4956035;29;20106;-72
2024/01/24 07:58:20;;;;;;;39.38;7.53;;;;;;;12.24;76.62;99513.34;4956306;29;20116;-72
2024/01/24 08:00:48;;;;;;;38.63;7.18;;;;;;;12.19;75.31;99514.59;4956155;29;20047;-71
2024/01/24 08:03:14;;;;;;;39.97;7.20;;;;;;;12.21;76.20;99531.16;4955723;29;20051;-74
2024/01/24 08:05:41;;;;;;;37.83;7.15;;;;;;;12.19;75.33;99538.34;4955787;29;20579;-73
2024/01/24 08:08:08;;;;;;;38.25;6.72;;;;;;;12.18;75.89;99518.19;4955872;29;20055;-73
2024/01/24 08:10:35;;;;;;;32.03;7.70;;;;;;;12.18;75.98;99549.84;4955676;29;20106;-76
2024/01/24 08:13:02;;;;;;;47.35;7.00;;;;;;;12.20;76.26;99558.50;4955426;29;20062;-73
2024/01/24 08:15:28;;;;;;;34.15;6.90;;;;;;;12.19;76.45;99575.28;4955769;29;20110;-72
2024/01/24 08:17:55;;;;;;;40.78;6.95;;;;;;;12.18;76.36;99587.63;4955796;29;20055;-74
2024/01/24 08:20:22;;;;;;;30.50;6.57;;;;;;;12.19;76.49;99572.66;4938452;29;20088;-75
2024/01/24 08:22:49;;;;;;;36.08;7.40;;;;;;;12.16;76.22;99575.50;4938086;29;20381;-73
2024/01/24 08:25:16;;;;;;;34.83;7.30;;;;;;;12.14;75.60;99590.59;4955280;29;20051;-74
2024/01/24 08:27:43;;;;;;;26.60;6.20;;;;;;;12.13;76.26;99592.38;4938328;29;20059;-73
2024/01/24 08:30:09;;;;;;;36.50;6.35;;;;;;;12.14;76.29;99587.94;4955554;29;20415;-73
2024/01/24 08:32:40;;;;;;;41.67;6.50;;;;;;;12.12;76.28;99614.44;4955311;29;20078;-75
2024/01/24 08:35:09;;;;;;;35.72;6.53;;;;;;;12.11;76.08;99595.09;4955330;29;20055;-73
2024/01/24 08:37:35;;;;;;;37.00;7.57;;;;;;;12.11;75.91;99607.44;4954308;29;20079;-74
2024/01/24 08:40:02;;;;;;;37.88;6.60;;;;;;;12.08;75.37;99602.38;4955240;29;20134;-75
2024/01/24 08:42:29;;;;;;;38.47;7.30;;;;;;;12.09;75.97;99597.00;4938298;29;20126;-73
2024/01/24 08:44:56;;;;;;;37.45;7.13;;;;;;;12.10;75.86;99640.06;4955368;29;20408;-73
2024/01/24 08:47:23;;;;;;;37.13;7.38;;;;;;;12.09;76.22;99623.41;4955246;29;20077;-72
2024/01/24 08:49:50;;;;;;;36.55;8.32;;;;;;;12.09;75.95;99633.94;4938087;29;20047;-73
2024/01/24 08:52:17;;;;;;;39.83;7.72;;;;;;;12.06;73.81;99622.72;4955118;29;20078;-73
2024/01/24 08:54:43;;;;;;;35.85;7.40;;;;;;;12.04;75.07;99649.19;4953438;28;20563;-74
2024/01/24 08:57:11;;;;;;;36.80;6.93;;;;;;;12.04;74.98;99627.25;4952429;29;20055;-76
2024/01/24 08:59:38;;;;;;;38.58;6.75;;;;;;;12.03;75.10;99621.13;4954466;29;20051;-73
2024/01/24 09:02:07;;;;;;;36.50;7.75;;;;;;;12.01;74.70;99635.34;4954577;29;20110;-72
2024/01/24 09:04:36;;;;;;;39.63;7.30;;;;;;;12.00;74.14;99631.84;4953982;28;20134;-74
2024/01/24 09:07:03;;;;;;;40.17;7.68;;;;;;;12.00;75.27;99652.97;4954144;29;20090;-74
2024/01/24 09:09:33;;;;;;;41.15;7.18;;;;;;;12.00;74.66;99655.59;4954112;29;20054;-71
2024/01/24 09:12:00;;;;;;;40.15;7.22;;;;;;;11.99;75.10;99630.16;4948759;29;20074;-73
2024/01/24 09:14:26;;;;;;;38.63;7.32;;;;;;;11.99;74.91;99632.81;4954088;29;20130;-73
2024/01/24 09:16:53;;;;;;;35.97;7.97;;;;;;;11.98;74.63;99654.88;4968450;28;20047;-74
2024/01/24 09:19:21;;;;;;;34.38;7.18;;;;;;;11.98;74.23;99663.63;4937185;29;20089;-73
2024/01/24 09:21:48;;;;;;;40.17;7.35;;;;;;;11.97;74.88;99664.56;4953943;29;20114;-71
2024/01/24 09:24:15;;;;;;;39.33;7.85;;;;;;;11.97;74.51;99659.28;4954171;29;20055;-72
2024/01/24 09:26:42;;;;;;;40.80;7.78;;;;;;;11.96;73.97;99665.50;4954218;29;20063;-73
2024/01/24 09:29:12;;;;;;;48.03;8.75;;;;;;;11.98;74.65;99676.81;4953672;29;20043;-74
2024/01/24 09:31:45;;;;;;;38.25;7.78;;;;;;;11.96;73.68;99678.69;4954071;29;20141;-73
2024/01/24 09:34:12;;;;;;;44.65;6.90;;;;;;;11.97;73.68;99693.56;4953915;29;20055;-72
2024/01/24 09:36:39;;;;;;;44.33;7.53;;;;;;;11.94;71.97;99691.16;4954410;29;20055;-74
2024/01/24 09:39:07;;;;;;;42.55;8.48;;;;;;;11.95;73.87;99716.59;4951231;29;20047;-74
2024/01/24 09:41:42;;;;;;;39.10;7.95;;;;;;;11.94;72.08;99729.88;4954012;29;20048;-72
2024/01/24 09:44:11;;;;;;;37.92;7.90;;;;;;;11.96;74.47;99730.63;4953796;29;20055;-73
2024/01/24 09:46:40;;;;;;;35.63;7.68;;;;;;;11.97;74.63;99763.97;4953875;29;20054;-72
2024/01/24 09:49:07;;;;;;;41.88;7.90;;;;;;;11.97;74.70;99738.44;4953382;29;20055;-73
2024/01/24 09:51:34;;;;;;;38.28;7.72;;;;;;;11.92;73.61;99713.31;4953938;29;20572;-73
2024/01/24 09:54:06;;;;;;;45.30;7.90;;;;;;;11.89;71.86;99734.59;4953630;29;20066;-72
2024/01/24 09:56:35;;;;;;;44.80;7.97;;;;;;;11.88;72.41;99739.00;4953879;29;20055;-72
2024/01/24 09:59:04;;;;;;;36.72;8.45;;;;;;;11.91;73.65;99740.59;4948347;29;20055;-74
2024/01/24 10:01:34;;;;;;;46.28;8.43;;;;;;;11.85;70.91;99745.31;4953937;29;20059;-74
2024/01/24 10:04:01;;;;;;;34.80;7.30;;;;;;;11.89;74.29;99739.88;4953769;29;20141;-74
2024/01/24 10:06:29;;;;;;;37.35;7.70;;;;;;;11.88;74.19;99751.38;4953542;29;20385;-74
2024/01/24 10:08:56;;;;;;;27.33;6.15;;;;;;;11.88;73.65;99746.09;4953355;29;20105;-72
2024/01/24 10:11:27;;;;;;;47.85;8.10;;;;;;;11.85;71.83;99723.41;4953264;29;20051;-74
2024/01/24 10:13:57;;;;;;;38.53;6.90;;;;;;;11.84;72.25;99769.16;4945674;29;20503;-72
2024/01/24 10:16:24;;;;;;;40.72;7.15;;;;;;;11.86;73.88;99764.66;4952703;28;20051;-73
2024/01/24 10:18:53;;;;;;;42.28;7.65;;;;;;;11.85;73.59;99742.69;4949629;29;20058;-74
2024/01/24 10:21:19;;;;;;;42.60;7.10;;;;;;;11.85;73.47;99766.44;4941646;29;20165;-72
2024/01/24 10:23:46;;;;;;;38.88;7.72;;;;;;;11.83;73.55;99765.69;4952997;29;20066;-73
2024/01/24 10:26:14;;;;;;;43.08;7.35;;;;;;;11.86;74.02;99783.94;4953085;29;20050;-74
2024/01/24 10:28:42;;;;;;;36.28;8.40;;;;;;;11.85;72.05;99774.34;4953305;29;20408;-74
2024/01/24 10:31:09;;;;;;;39.55;7.10;;;;;;;11.87;73.36;99787.44;4948868;29;20071;-72
2024/01/24 10:33:36;;;;;;;39.38;7.25;;;;;;;11.88;73.54;99788.28;4967470;28;20097;-73
2024/01/24 10:36:04;;;;;;;41.72;7.43;;;;;;;11.89;73.90;99782.06;4953161;29;20523;-73
2024/01/24 10:38:47;;;;;;;40.80;8.48;;;;;;;11.89;72.04;99777.63;4936940;29;20047;-75
2024/01/24 10:41:16;;;;;;;32.17;6.85;;;;;;;11.93;74.48;99775.66;4935715;29;20051;-75
2024/01/24 10:43:50;;;;;;;33.78;6.53;;;;;;;11.92;71.59;99781.88;4952886;29;20055;-74
2024/01/24 10:46:17;;;;;;;42.03;7.57;;;;;;;11.94;74.37;99779.97;4952970;29;20527;-73
2024/01/24 10:48:44;;;;;;;29.75;6.40;;;;;;;11.95;73.97;99792.22;4953009;29;20051;-74
2024/01/24 10:51:12;;;;;;;37.70;7.13;;;;;;;11.96;74.26;99776.31;4946366;29;20062;-75
2024/01/24 10:53:40;;;;;;;37.88;6.90;;;;;;;11.95;73.11;99782.53;4952831;29;20058;-75
2024/01/24 10:56:07;;;;;;;36.85;7.35;;;;;;;11.96;74.17;99784.22;4952865;29;20055;-74
2024/01/24 10:58:34;;;;;;;34.67;6.68;;;;;;;11.97;74.20;99790.34;4953069;29;20058;-74
2024/01/24 11:01:01;;;;;;;29.85;6.35;;;;;;;11.99;74.08;99806.91;4952387;29;20106;-72
2024/01/24 11:03:28;;;;;;;39.00;7.32;;;;;;;11.98;73.57;99821.06;4952713;29;20140;-74
2024/01/24 11:05:58;;;;;;;36.13;7.10;;;;;;;11.99;73.68;99804.28;4952542;29;20106;-74
2024/01/24 11:08:36;;;;;;;37.88;7.78;;;;;;;11.97;70.71;99804.38;4952918;29;20500;-71
2024/01/24 11:11:16;;;;;;;32.58;6.00;;;;;;;12.02;73.72;99804.09;4950994;29;20075;-73
2024/01/24 11:13:43;;;;;;;38.45;7.03;;;;;;;12.02;73.24;99812.00;4935555;29;20054;-73
2024/01/24 11:16:26;;;;;;;28.15;6.00;;;;;;;11.97;69.33;99822.84;4952717;29;20055;-74
2024/01/24 11:19:01;;;;;;;38.00;6.60;;;;;;;12.00;70.81;99824.44;4952787;29;20564;-72
2024/01/24 11:21:28;;;;;;;29.98;6.90;;;;;;;12.04;73.91;99809.28;4951318;29;20126;-72
2024/01/24 11:23:58;;;;;;;35.38;6.78;;;;;;;12.05;73.95;99816.25;4952270;29;20090;-75
2024/01/24 11:26:25;;;;;;;38.72;7.18;;;;;;;12.05;72.08;99854.06;4952686;28;20063;-73
2024/01/24 11:29:05;;;;;;;34.95;6.53;;;;;;;12.02;68.92;99809.38;4971344;28;20542;-74